Terminal Aerodrome Forecast
Issued by NWS Tampa Bay Area, FL

Home | Current Version | Previous Version | Text Only | Print | Product List | Glossary On
Versions: 1 2 3 4 5 6 7 8 9 10 11 12 13
000
FTUS42 KTBW 230500 RRA
TAFSRQ
TAF
KSRQ 230543Z 2306/2406 VRB03KT P6SM FEW030 SCT250
     FM231500 36005KT P6SM SCT030 SCT250
     FM231800 31008KT P6SM VCTS SCT030CB BKN150
     FM240000 35004KT P6SM FEW035 BKN250=

USA.gov is the U.S. government's official web portal to all federal, state and local government web resources and services.